Nicolville, Minnesota
Current Conditions -  °F | °C
As of 10:36 PM on Wednesday 26 Nov 2014 (Local Time) from KAUM Reporting Station
Light Snow Light Snow  
Wind Chill:   Ceiling: 3600
Heat Index: 18°   Visibility: 5mi
Dew Point: 16°   Wind: 10mph
Humidity: 93%   Direction: 300°WNW
Pressure: 30.3"   Gusts: NA
Location:  43.7173°N, 92.9889°W
Report Text: KAUM 270436Z AUTO 30009KT 5SM -SN SCT026 OVC036 M08/M09 A3030 RMK AO2
Loading
Personal Weather Stations






























Interactive Weather Map New forecast layout! Learn more

10-Day Weather Forecast

Advertisements
Track Severe Weather on mobile